This is the latest recevied weather packets stored in our database for station/object NG6B-2. If no packets are shown the sender has not sent any weather packets the latest 10 day(s).
| Time | Temp. | Humidity | Pressure | Rain* | Wind** | Luminosity | Snow |
|---|---|---|---|---|---|---|---|
| 1777424383 | 25.56° C | 8% | 1007.8 hPa | 0 mm | - | - | - |
| 1777422582 | 26.11° C | 8% | 1007.7 hPa | 0 mm | - | - | - |
| 1777420781 | 26.67° C | 7% | 1007.3 hPa | 0 mm | - | - | - |
| 1777418980 | 27.78° C | 7% | 1007.4 hPa | 0 mm | - | - | - |
| 1777417179 | 28.33° C | 7% | 1007.3 hPa | 0 mm | - | - | - |
| 1777415378 | 27.78° C | 7% | 1007.6 hPa | 0 mm | - | - | - |
| 1777413577 | 27.78° C | 7% | 1007.9 hPa | 0 mm | - | - | - |
| 1777411776 | 27.22° C | 8% | 1008.4 hPa | 0 mm | - | - | - |
| 1777409975 | 27.78° C | 7% | 1008.7 hPa | 0 mm | - | - | - |
| 1777408174 | 27.78° C | 7% | 1009.2 hPa | 0 mm | - | - | - |
| 1777406373 | 26.67° C | 7% | 1009.3 hPa | 0 mm | - | - | - |
| 1777404572 | 26.11° C | 9% | 1009.3 hPa | 0 mm | - | - | - |
| 1777402771 | 26.11° C | 12% | 1009.9 hPa | 0 mm | - | - | - |
| 1777400970 | 25° C | 13% | 1010.3 hPa | 0 mm | - | - | - |
| 1777399170 | 25° C | 15% | 1010.4 hPa | 0 mm | - | - | - |
| 1777397368 | 23.89° C | 17% | 1010.6 hPa | 0 mm | - | - | - |
| 1777395567 | 22.78° C | 20% | 1010.6 hPa | 0 mm | - | - | - |
| 1777393766 | 21.67° C | 23% | 1010.6 hPa | 0 mm | - | - | - |
| 1777391965 | 20.56° C | 25% | 1010.6 hPa | 0 mm | - | - | - |
| 1777390164 | 20° C | 26% | 1010.6 hPa | 0 mm | - | - | - |
| 1777388363 | 18.33° C | 28% | 1010.8 hPa | 0 mm | - | - | - |
| 1777386562 | 16.67° C | 31% | 1010.4 hPa | 0 mm | - | - | - |
| 1777384761 | 13.89° C | 38% | 1010.4 hPa | 0 mm | - | - | - |
| 1777382960 | 10.56° C | 45% | 1009.9 hPa | 0 mm | - | - | - |
| 1777381159 | 9.44° C | 48% | 1009.7 hPa | 0 mm | - | - | - |
* Rain latest hour (hover to see other rain measurements)
** Current wind speed in m/s (hover to see current wind gust speed)